Time;durP1;ratioP1;P1;durP2;ratioP2;P2;SDS_P1;SDS_P2;PMS_P1;PMS_P2;Temp;Humidity;BMP_temperature;BMP_pressure;BME280_temperature;BME280_humidity;BME280_pressure;Samples;Min_cycle;Max_cycle;Signal;HPM_P1;HPM_P2
2024/01/21 00:01:48;;;;;;;;;;;;;;;;;;2199238;59;1946;-22
2024/01/21 00:04:18;;;;;;;;;;;;;;;;;;2197808;67;2452;-21
2024/01/21 00:06:49;;;;;;;;;;;;;;;;;;2199285;59;2002;-22
2024/01/21 00:09:19;;;;;;;;;;;;;;;;;;2200804;59;2338;-22
2024/01/21 00:11:49;;;;;;;;;;;;;;;;;;2203401;59;2039;-22
2024/01/21 00:14:20;;;;;;;;;;;;;;;;;;2198447;67;2268;-22
2024/01/21 00:16:50;;;;;;;;;;;;;;;;;;2195100;59;2500;-22
2024/01/21 00:19:20;;;;;;;;;;;;;;;;;;2196152;67;1853;-21
2024/01/21 00:21:50;;;;;;;;;;;;;;;;;;2198809;67;1835;-22
2024/01/21 00:24:20;;;;;;;;;;;;;;;;;;2195591;67;1856;-22
2024/01/21 00:26:51;;;;;;;;;;;;;;;;;;2198497;59;1976;-21
2024/01/21 00:29:21;;;;;;;;;;;;;;;;;;2194460;67;1848;-21
2024/01/21 00:31:51;;;;;;;;;;;;;;;;;;2198445;67;1967;-21
2024/01/21 00:34:21;;;;;;;;;;;;;;;;;;2198747;67;1961;-22
2024/01/21 00:36:51;;;;;;;;;;;;;;;;;;2201782;67;2066;-22
2024/01/21 00:39:22;;;;;;;;;;;;;;;;;;2203591;59;2129;-22
2024/01/21 00:41:52;;;;;;;;;;;;;;;;;;2203935;67;1881;-22
2024/01/21 00:44:22;;;;;;;;;;;;;;;;;;2202557;67;1962;-22
2024/01/21 00:46:52;;;;;;;;;;;;;;;;;;2204200;67;1985;-22
2024/01/21 00:49:22;;;;;;;;;;;;;;;;;;2203861;59;2370;-22
2024/01/21 00:51:53;;;;;;;;;;;;;;;;;;2203334;67;1844;-21
2024/01/21 00:54:23;;;;;;;;;;;;;;;;;;2203161;59;2599;-21
2024/01/21 00:56:53;;;;;;;;;;;;;;;;;;2200061;59;1932;-21
2024/01/21 00:59:24;;;;;;;;;;;;;;;;;;2199863;67;1829;-21
2024/01/21 01:01:54;;;;;;;;;;;;;;;;;;2199899;59;2665;-21
2024/01/21 01:04:26;;;;;;;;;;;;;;;;;;2198599;59;1958;-21
2024/01/21 01:06:57;;;;;;;;;;;;;;;;;;2196918;59;2558;-21
2024/01/21 01:09:27;;;;;;;;;;;;;;;;;;2198927;59;2252;-21
2024/01/21 01:11:57;;;;;;;;;;;;;;;;;;2201182;59;1768;-21
2024/01/21 01:14:27;;;;;;;;;;;;;;;;;;2200762;67;1977;-21
2024/01/21 01:16:58;;;;;;;;;;;;;;;;;;2199864;59;2453;-21
2024/01/21 01:19:28;;;;;;;;;;;;;;;;;;2198500;67;1784;-22
2024/01/21 01:21:58;;;;;;;;;;;;;;;;;;2198873;67;2034;-22
2024/01/21 01:24:28;;;;;;;;;;;;;;;;;;2198576;67;2059;-21
2024/01/21 01:26:58;;;;;;;;;;;;;;;;;;2199255;59;2029;-22
2024/01/21 01:29:29;;;;;;;;;;;;;;;;;;2200610;59;2065;-21
2024/01/21 01:31:59;;;;;;;;;;;;;;;;;;2203361;67;1848;-21
2024/01/21 01:34:30;;;;;;;;;;;;;;;;;;2203289;67;2538;-20
2024/01/21 01:37:00;;;;;;;;;;;;;;;;;;2204233;67;1853;-21
2024/01/21 01:39:30;;;;;;;;;;;;;;;;;;2203262;67;2048;-20
2024/01/21 01:42:00;;;;;;;;;;;;;;;;;;2201470;67;2459;-21
2024/01/21 01:44:31;;;;;;;;;;;;;;;;;;2203919;67;1717;-21
2024/01/21 01:47:01;;;;;;;;;;;;;;;;;;2203202;67;2228;-20
2024/01/21 01:49:31;;;;;;;;;;;;;;;;;;2198964;59;1840;-20
2024/01/21 01:52:02;;;;;;;;;;;;;;;;;;2199541;67;1865;-21
2024/01/21 01:54:33;;;;;;;;;;;;;;;;;;2199360;59;2456;-21
2024/01/21 01:57:05;;;;;;;;;;;;;;;;;;2199721;59;1983;-20
2024/01/21 01:59:36;;;;;;;;;;;;;;;;;;2198191;67;1904;-21
2024/01/21 02:02:07;;;;;;;;;;;;;;;;;;2199830;59;1881;-21
2024/01/21 02:04:37;;;;;;;;;;;;;;;;;;2199048;59;1919;-20
2024/01/21 02:07:07;;;;;;;;;;;;;;;;;;2199911;59;2045;-20
2024/01/21 02:09:37;;;;;;;;;;;;;;;;;;2196204;59;2563;-21
2024/01/21 02:12:08;;;;;;;;;;;;;;;;;;2196293;67;2108;-20
2024/01/21 02:14:38;;;;;;;;;;;;;;;;;;2198646;59;1937;-20
2024/01/21 02:17:08;;;;;;;;;;;;;;;;;;2199851;59;2449;-20
2024/01/21 02:19:39;;;;;;;;;;;;;;;;;;2200788;59;2250;-20
2024/01/21 02:22:09;;;;;;;;;;;;;;;;;;2197495;59;2062;-21
2024/01/21 02:24:39;;;;;;;;;;;;;;;;;;2198831;59;1865;-20
2024/01/21 02:27:09;;;;;;;;;;;;;;;;;;2196788;59;2347;-20
2024/01/21 02:29:39;;;;;;;;;;;;;;;;;;2199246;59;1881;-20
2024/01/21 02:32:10;;;;;;;;;;;;;;;;;;2195562;59;2017;-20
2024/01/21 02:34:40;;;;;;;;;;;;;;;;;;2194134;67;2070;-20
2024/01/21 02:37:10;;;;;;;;;;;;;;;;;;2200606;67;1884;-20
2024/01/21 02:39:40;;;;;;;;;;;;;;;;;;2199376;59;1823;-20
2024/01/21 02:42:11;;;;;;;;;;;;;;;;;;2198565;67;1977;-20
2024/01/21 02:44:41;;;;;;;;;;;;;;;;;;2195947;67;1776;-20
2024/01/21 02:47:11;;;;;;;;;;;;;;;;;;2199286;67;1972;-20
2024/01/21 02:49:41;;;;;;;;;;;;;;;;;;2195785;59;2013;-20
2024/01/21 02:52:11;;;;;;;;;;;;;;;;;;2198315;67;1779;-20
2024/01/21 02:54:42;;;;;;;;;;;;;;;;;;2198801;59;2132;-21
2024/01/21 02:57:12;;;;;;;;;;;;;;;;;;2200093;59;1921;-20
2024/01/21 02:59:43;;;;;;;;;;;;;;;;;;2196459;67;1771;-20
2024/01/21 03:02:13;;;;;;;;;;;;;;;;;;2199538;59;2922;-20
2024/01/21 03:04:43;;;;;;;;;;;;;;;;;;2199276;59;2280;-20
2024/01/21 03:07:13;;;;;;;;;;;;;;;;;;2200542;59;2058;-20
2024/01/21 03:09:44;;;;;;;;;;;;;;;;;;2195734;59;2434;-20
2024/01/21 03:12:14;;;;;;;;;;;;;;;;;;2199155;67;2015;-20
2024/01/21 03:14:44;;;;;;;;;;;;;;;;;;2198380;67;1988;-21
2024/01/21 03:17:14;;;;;;;;;;;;;;;;;;2196367;59;2382;-20
2024/01/21 03:19:44;;;;;;;;;;;;;;;;;;2196240;67;1781;-20
2024/01/21 03:22:15;;;;;;;;;;;;;;;;;;2198303;67;2004;-20
2024/01/21 03:24:45;;;;;;;;;;;;;;;;;;2199195;67;1831;-20
2024/01/21 03:27:15;;;;;;;;;;;;;;;;;;2196018;59;1745;-21
2024/01/21 03:29:45;;;;;;;;;;;;;;;;;;2198330;60;1768;-20
2024/01/21 03:32:16;;;;;;;;;;;;;;;;;;2198892;67;1823;-20
2024/01/21 03:34:46;;;;;;;;;;;;;;;;;;2198880;67;2183;-20
2024/01/21 03:37:18;;;;;;;;;;;;;;;;;;2198618;67;1897;-20
2024/01/21 03:39:48;;;;;;;;;;;;;;;;;;2197582;67;2130;-21
2024/01/21 03:42:18;;;;;;;;;;;;;;;;;;2198618;67;1992;-20
2024/01/21 03:44:49;;;;;;;;;;;;;;;;;;2198974;67;1921;-20
2024/01/21 03:47:19;;;;;;;;;;;;;;;;;;2196493;67;2634;-20
2024/01/21 03:49:51;;;;;;;;;;;;;;;;;;2198311;59;2240;-20
2024/01/21 03:52:21;;;;;;;;;;;;;;;;;;2197353;59;1829;-20
2024/01/21 03:54:53;;;;;;;;;;;;;;;;;;2198028;67;1990;-20
2024/01/21 03:57:23;;;;;;;;;;;;;;;;;;2195871;59;2503;-21
2024/01/21 03:59:53;;;;;;;;;;;;;;;;;;2195746;59;1992;-20
2024/01/21 04:02:24;;;;;;;;;;;;;;;;;;2200022;59;1850;-21
2024/01/21 04:04:54;;;;;;;;;;;;;;;;;;2196221;59;1825;-20
2024/01/21 04:07:25;;;;;;;;;;;;;;;;;;2200664;59;1863;-20
2024/01/21 04:09:55;;;;;;;;;;;;;;;;;;2198337;67;1768;-20
2024/01/21 04:12:25;;;;;;;;;;;;;;;;;;2198891;67;2052;-20
2024/01/21 04:14:56;;;;;;;;;;;;;;;;;;2195152;67;2018;-20
2024/01/21 04:17:27;;;;;;;;;;;;;;;;;;2199200;59;2576;-20
2024/01/21 04:19:57;;;;;;;;;;;;;;;;;;2197419;67;1815;-20
2024/01/21 04:22:27;;;;;;;;;;;;;;;;;;2196354;67;1975;-21
2024/01/21 04:24:57;;;;;;;;;;;;;;;;;;2198114;67;2436;-20
2024/01/21 04:27:27;;;;;;;;;;;;;;;;;;2198462;59;1791;-20
2024/01/21 04:29:57;;;;;;;;;;;;;;;;;;2198491;59;2565;-21
2024/01/21 04:32:28;;;;;;;;;;;;;;;;;;2196217;67;2340;-20
2024/01/21 04:34:58;;;;;;;;;;;;;;;;;;2197819;67;2051;-20
2024/01/21 04:37:28;;;;;;;;;;;;;;;;;;2196057;67;1931;-21
2024/01/21 04:39:58;;;;;;;;;;;;;;;;;;2197587;67;2667;-20
2024/01/21 04:42:29;;;;;;;;;;;;;;;;;;2199195;67;2195;-20
2024/01/21 04:44:59;;;;;;;;;;;;;;;;;;2198426;67;2514;-21
2024/01/21 04:47:29;;;;;;;;;;;;;;;;;;2197340;67;1839;-20
2024/01/21 04:49:59;;;;;;;;;;;;;;;;;;2197336;67;2045;-20
2024/01/21 04:52:30;;;;;;;;;;;;;;;;;;2196200;59;1857;-20
2024/01/21 04:55:00;;;;;;;;;;;;;;;;;;2198899;67;2616;-20
2024/01/21 04:57:30;;;;;;;;;;;;;;;;;;2199560;59;1675;-20
2024/01/21 05:00:00;;;;;;;;;;;;;;;;;;2195476;67;1896;-20
2024/01/21 05:02:31;;;;;;;;;;;;;;;;;;2199587;59;1905;-20
2024/01/21 05:05:01;;;;;;;;;;;;;;;;;;2195025;59;1881;-20
2024/01/21 05:07:31;;;;;;;;;;;;;;;;;;2199577;59;2521;-20
2024/01/21 05:10:01;;;;;;;;;;;;;;;;;;2197929;67;1978;-21
2024/01/21 05:12:31;;;;;;;;;;;;;;;;;;2199161;67;1794;-20
2024/01/21 05:15:03;;;;;;;;;;;;;;;;;;2195562;59;2715;-20
2024/01/21 05:17:33;;;;;;;;;;;;;;;;;;2196076;59;2416;-20
2024/01/21 05:20:05;;;;;;;;;;;;;;;;;;2198985;67;1823;-20
2024/01/21 05:22:35;;;;;;;;;;;;;;;;;;2200022;59;1854;-21
2024/01/21 05:25:06;;;;;;;;;;;;;;;;;;2197868;67;2292;-20
2024/01/21 05:27:36;;;;;;;;;;;;;;;;;;2199093;59;2545;-20
2024/01/21 05:30:06;;;;;;;;;;;;;;;;;;2198738;59;1935;-20
2024/01/21 05:32:37;;;;;;;;;;;;;;;;;;2197698;67;2435;-20
2024/01/21 05:35:07;;;;;;;;;;;;;;;;;;2195567;67;2699;-20
2024/01/21 05:37:37;;;;;;;;;;;;;;;;;;2199508;67;1916;-21
2024/01/21 05:40:08;;;;;;;;;;;;;;;;;;2199510;59;2030;-21
2024/01/21 05:42:38;;;;;;;;;;;;;;;;;;2199477;67;2164;-20
2024/01/21 05:45:09;;;;;;;;;;;;;;;;;;2199373;67;1894;-20
2024/01/21 05:47:40;;;;;;;;;;;;;;;;;;2198769;67;1950;-21
2024/01/21 05:50:10;;;;;;;;;;;;;;;;;;2196427;59;1858;-21
2024/01/21 05:52:40;;;;;;;;;;;;;;;;;;2198516;59;1850;-21
2024/01/21 05:55:10;;;;;;;;;;;;;;;;;;2199293;67;1942;-21
2024/01/21 05:57:41;;;;;;;;;;;;;;;;;;2198634;67;1839;-21
2024/01/21 06:00:12;;;;;;;;;;;;;;;;;;2196259;67;1754;-21
2024/01/21 06:02:44;;;;;;;;;;;;;;;;;;2195760;60;2034;-21
2024/01/21 06:05:15;;;;;;;;;;;;;;;;;;2199716;59;1937;-21
2024/01/21 06:07:45;;;;;;;;;;;;;;;;;;2198558;59;1716;-21
2024/01/21 06:10:15;;;;;;;;;;;;;;;;;;2199713;67;1832;-21
2024/01/21 06:12:45;;;;;;;;;;;;;;;;;;2192969;67;2124;-21
2024/01/21 06:15:16;;;;;;;;;;;;;;;;;;2199768;59;2292;-21
2024/01/21 06:17:46;;;;;;;;;;;;;;;;;;2195915;67;2043;-21
2024/01/21 06:20:16;;;;;;;;;;;;;;;;;;2199291;67;2053;-21
2024/01/21 06:22:46;;;;;;;;;;;;;;;;;;2198562;67;2020;-21
2024/01/21 06:25:17;;;;;;;;;;;;;;;;;;2199629;67;1960;-21
2024/01/21 06:27:47;;;;;;;;;;;;;;;;;;2197624;59;2535;-21
2024/01/21 06:30:19;;;;;;;;;;;;;;;;;;2196636;59;1906;-21
2024/01/21 06:32:49;;;;;;;;;;;;;;;;;;2198603;67;2481;-21
2024/01/21 06:35:19;;;;;;;;;;;;;;;;;;2198915;67;2014;-21
2024/01/21 06:37:50;;;;;;;;;;;;;;;;;;2198435;67;1825;-21
2024/01/21 06:40:20;;;;;;;;;;;;;;;;;;2198970;67;1834;-21
2024/01/21 06:42:50;;;;;;;;;;;;;;;;;;2198323;67;1855;-21
2024/01/21 06:45:20;;;;;;;;;;;;;;;;;;2199035;67;1888;-21
2024/01/21 06:47:51;;;;;;;;;;;;;;;;;;2198685;59;2270;-21
2024/01/21 06:50:21;;;;;;;;;;;;;;;;;;2197054;67;1777;-21
2024/01/21 06:52:51;;;;;;;;;;;;;;;;;;2198427;59;1857;-21
2024/01/21 06:55:22;;;;;;;;;;;;;;;;;;2198602;59;2000;-21
2024/01/21 06:57:52;;;;;;;;;;;;;;;;;;2197229;67;2203;-21
2024/01/21 07:00:23;;;;;;;;;;;;;;;;;;2193585;67;1880;-21
2024/01/21 07:02:53;;;;;;;;;;;;;;;;;;2195109;59;1788;-21
2024/01/21 07:05:23;;;;;;;;;;;;;;;;;;2199599;59;1973;-21
2024/01/21 07:07:53;;;;;;;;;;;;;;;;;;2198314;59;1707;-21
2024/01/21 07:10:23;;;;;;;;;;;;;;;;;;2195742;59;1850;-21
2024/01/21 07:12:55;;;;;;;;;;;;;;;;;;2198271;67;2027;-21
2024/01/21 07:15:25;;;;;;;;;;;;;;;;;;2199290;59;2221;-21
2024/01/21 07:17:56;;;;;;;;;;;;;;;;;;2194856;67;2088;-21
2024/01/21 07:20:26;;;;;;;;;;;;;;;;;;2195790;67;2297;-21
2024/01/21 07:22:56;;;;;;;;;;;;;;;;;;2196458;67;1943;-21
2024/01/21 07:25:26;;;;;;;;;;;;;;;;;;2198963;67;1925;-21
2024/01/21 07:27:57;;;;;;;;;;;;;;;;;;2196336;67;2053;-21
2024/01/21 07:30:27;;;;;;;;;;;;;;;;;;2198846;67;1901;-21
2024/01/21 07:32:57;;;;;;;;;;;;;;;;;;2198584;67;1957;-21
2024/01/21 07:35:27;;;;;;;;;;;;;;;;;;2196973;59;1937;-21
2024/01/21 07:37:58;;;;;;;;;;;;;;;;;;2195803;67;1896;-21
2024/01/21 07:40:28;;;;;;;;;;;;;;;;;;2199247;67;1961;-21
2024/01/21 07:42:58;;;;;;;;;;;;;;;;;;2198481;67;2355;-21
2024/01/21 07:45:28;;;;;;;;;;;;;;;;;;2200096;67;1975;-21
2024/01/21 07:47:59;;;;;;;;;;;;;;;;;;2196708;59;1850;-21
2024/01/21 07:50:29;;;;;;;;;;;;;;;;;;2199627;67;1926;-21
2024/01/21 07:52:59;;;;;;;;;;;;;;;;;;2195918;59;1844;-21
2024/01/21 07:55:29;;;;;;;;;;;;;;;;;;2199624;59;2038;-21
2024/01/21 07:58:01;;;;;;;;;;;;;;;;;;2198510;59;1884;-21
2024/01/21 08:00:31;;;;;;;;;;;;;;;;;;2199090;59;1842;-21
2024/01/21 08:03:02;;;;;;;;;;;;;;;;;;2198997;59;2475;-21
2024/01/21 08:05:33;;;;;;;;;;;;;;;;;;2200544;59;1992;-21
2024/01/21 08:08:03;;;;;;;;;;;;;;;;;;2199426;59;2584;-21
2024/01/21 08:10:34;;;;;;;;;;;;;;;;;;2196449;59;2103;-21
2024/01/21 08:13:04;;;;;;;;;;;;;;;;;;2198633;67;2004;-21
2024/01/21 08:15:34;;;;;;;;;;;;;;;;;;2199304;59;2327;-21
2024/01/21 08:18:05;;;;;;;;;;;;;;;;;;2199014;67;1961;-21
2024/01/21 08:20:35;;;;;;;;;;;;;;;;;;2198084;59;2013;-21
2024/01/21 08:23:05;;;;;;;;;;;;;;;;;;2198918;59;2238;-21
2024/01/21 08:25:35;;;;;;;;;;;;;;;;;;2199743;67;1969;-21
2024/01/21 08:28:06;;;;;;;;;;;;;;;;;;2198487;59;2459;-21
2024/01/21 08:30:36;;;;;;;;;;;;;;;;;;2198748;67;1976;-21
2024/01/21 08:33:06;;;;;;;;;;;;;;;;;;2199108;67;2832;-21
2024/01/21 08:35:36;;;;;;;;;;;;;;;;;;2198757;67;2466;-21
2024/01/21 08:38:06;;;;;;;;;;;;;;;;;;2198743;59;1921;-21
2024/01/21 08:40:38;;;;;;;;;;;;;;;;;;2197636;67;2385;-21
2024/01/21 08:43:08;;;;;;;;;;;;;;;;;;2199107;67;2605;-21
2024/01/21 08:45:38;;;;;;;;;;;;;;;;;;2198532;67;1966;-21
2024/01/21 08:48:09;;;;;;;;;;;;;;;;;;2198503;59;2014;-21
2024/01/21 08:50:39;;;;;;;;;;;;;;;;;;2198348;67;1793;-21
2024/01/21 08:53:09;;;;;;;;;;;;;;;;;;2198348;59;1979;-21
2024/01/21 08:55:40;;;;;;;;;;;;;;;;;;2199119;59;1948;-21
2024/01/21 08:58:10;;;;;;;;;;;;;;;;;;2197938;67;1973;-21
2024/01/21 09:00:40;;;;;;;;;;;;;;;;;;2198489;59;2490;-21
2024/01/21 09:03:12;;;;;;;;;;;;;;;;;;2198370;59;3278;-21
2024/01/21 09:05:42;;;;;;;;;;;;;;;;;;2199019;67;1803;-21
2024/01/21 09:08:12;;;;;;;;;;;;;;;;;;2198908;59;2306;-21
2024/01/21 09:10:43;;;;;;;;;;;;;;;;;;2200025;59;2496;-21
2024/01/21 09:13:13;;;;;;;;;;;;;;;;;;2199185;67;1856;-21
2024/01/21 09:15:43;;;;;;;;;;;;;;;;;;2199446;59;2449;-21
2024/01/21 09:18:14;;;;;;;;;;;;;;;;;;2195953;67;2064;-21
2024/01/21 09:20:44;;;;;;;;;;;;;;;;;;2200289;59;2076;-21
2024/01/21 09:23:14;;;;;;;;;;;;;;;;;;2198330;67;2205;-21
2024/01/21 09:25:45;;;;;;;;;;;;;;;;;;2198940;63;1978;-22
2024/01/21 09:28:15;;;;;;;;;;;;;;;;;;2198735;59;1836;-22
2024/01/21 09:30:45;;;;;;;;;;;;;;;;;;2199648;67;2250;-22
2024/01/21 09:33:17;;;;;;;;;;;;;;;;;;2199645;67;1983;-22
2024/01/21 09:35:49;;;;;;;;;;;;;;;;;;2199734;67;1948;-22
2024/01/21 09:38:21;;;;;;;;;;;;;;;;;;2199340;67;2030;-22
2024/01/21 09:40:56;;;;;;;;;;;;;;;;;;2196379;67;2107;-22
2024/01/21 09:43:27;;;;;;;;;;;;;;;;;;2199155;67;1842;-22
2024/01/21 09:45:58;;;;;;;;;;;;;;;;;;2200781;67;2113;-22
2024/01/21 09:48:29;;;;;;;;;;;;;;;;;;2202453;59;2050;-22
2024/01/21 09:51:00;;;;;;;;;;;;;;;;;;2198972;67;2080;-22
2024/01/21 09:53:30;;;;;;;;;;;;;;;;;;2199762;59;1809;-22
2024/01/21 09:56:05;;;;;;;;;;;;;;;;;;2199137;59;2438;-22
2024/01/21 09:58:50;;;;;;;;;;;;;;;;;;2199296;59;1898;-22
2024/01/21 10:01:21;;;;;;;;;;;;;;;;;;2198642;59;1978;-22
2024/01/21 10:03:51;;;;;;;;;;;;;;;;;;2196819;59;2729;-22
2024/01/21 10:06:21;;;;;;;;;;;;;;;;;;2198413;59;2916;-22
2024/01/21 10:08:52;;;;;;;;;;;;;;;;;;2200047;59;2079;-22
2024/01/21 10:11:22;;;;;;;;;;;;;;;;;;2199163;59;2635;-22
2024/01/21 10:13:52;;;;;;;;;;;;;;;;;;2199167;59;2788;-23
2024/01/21 10:16:23;;;;;;;;;;;;;;;;;;2199662;59;2588;-22
2024/01/21 10:18:53;;;;;;;;;;;;;;;;;;2199930;67;1930;-22
2024/01/21 10:21:23;;;;;;;;;;;;;;;;;;2199104;59;2383;-22
2024/01/21 10:23:54;;;;;;;;;;;;;;;;;;2199590;67;2302;-22
2024/01/21 10:26:24;;;;;;;;;;;;;;;;;;2198730;67;1870;-22
2024/01/21 10:28:54;;;;;;;;;;;;;;;;;;2198141;59;1552;-22
2024/01/21 10:31:24;;;;;;;;;;;;;;;;;;2199979;67;2072;-22
2024/01/21 10:33:54;;;;;;;;;;;;;;;;;;2199312;59;2317;-22
2024/01/21 10:36:26;;;;;;;;;;;;;;;;;;2198339;59;1953;-23
2024/01/21 10:38:58;;;;;;;;;;;;;;;;;;2200480;59;1646;-23
2024/01/21 10:41:30;;;;;;;;;;;;;;;;;;2199899;59;1628;-23
2024/01/21 10:44:01;;;;;;;;;;;;;;;;;;2196800;67;1860;-22
2024/01/21 10:46:35;;;;;;;;;;;;;;;;;;2200197;67;1361;-23
2024/01/21 10:49:05;;;;;;;;;;;;;;;;;;2196129;59;1887;-23
2024/01/21 10:51:36;;;;;;;;;;;;;;;;;;2201023;59;1590;-22
2024/01/21 10:54:06;;;;;;;;;;;;;;;;;;2199703;67;1349;-22
2024/01/21 10:56:37;;;;;;;;;;;;;;;;;;2197554;59;1941;-22
2024/01/21 10:59:08;;;;;;;;;;;;;;;;;;2196544;67;1590;-22
2024/01/21 11:01:42;;;;;;;;;;;;;;;;;;2200117;59;1537;-22
2024/01/21 11:04:14;;;;;;;;;;;;;;;;;;2199727;67;1475;-22
2024/01/21 11:06:48;;;;;;;;;;;;;;;;;;2200053;59;1827;-22
2024/01/21 11:09:23;;;;;;;;;;;;;;;;;;2196731;59;2204;-23
2024/01/21 11:11:53;;;;;;;;;;;;;;;;;;2200257;67;1303;-22
2024/01/21 11:14:33;;;;;;;;;;;;;;;;;;2198428;67;1673;-22
2024/01/21 11:17:04;;;;;;;;;;;;;;;;;;2196347;59;2535;-22
2024/01/21 11:19:51;;;;;;;;;;;;;;;;;;2196500;67;1773;-22
2024/01/21 11:22:23;;;;;;;;;;;;;;;;;;2195786;59;1581;-22
2024/01/21 11:24:55;;;;;;;;;;;;;;;;;;2199234;67;2508;-22
2024/01/21 11:27:26;;;;;;;;;;;;;;;;;;2199147;67;1496;-22
2024/01/21 11:29:57;;;;;;;;;;;;;;;;;;2199562;59;1337;-22
2024/01/21 11:32:29;;;;;;;;;;;;;;;;;;2196171;67;1710;-22
2024/01/21 11:35:09;;;;;;;;;;;;;;;;;;2195809;67;1916;-22
2024/01/21 11:37:40;;;;;;;;;;;;;;;;;;2198573;67;1725;-22
2024/01/21 11:40:10;;;;;;;;;;;;;;;;;;2198368;59;1634;-22
2024/01/21 11:42:41;;;;;;;;;;;;;;;;;;2199549;59;1487;-22
2024/01/21 11:45:11;;;;;;;;;;;;;;;;;;2199293;67;1399;-22
2024/01/21 11:47:41;;;;;;;;;;;;;;;;;;2193557;67;1677;-22
2024/01/21 11:50:12;;;;;;;;;;;;;;;;;;2198810;59;1479;-22
2024/01/21 11:52:42;;;;;;;;;;;;;;;;;;2198410;59;2294;-22
2024/01/21 11:55:12;;;;;;;;;;;;;;;;;;2197553;59;1953;-23
2024/01/21 11:57:42;;;;;;;;;;;;;;;;;;2199354;59;1368;-22
2024/01/21 12:00:13;;;;;;;;;;;;;;;;;;2192662;59;2413;-22
2024/01/21 12:02:45;;;;;;;;;;;;;;;;;;2198406;67;2699;-22
2024/01/21 12:05:19;;;;;;;;;;;;;;;;;;2196165;59;2530;-22
2024/01/21 12:07:49;;;;;;;;;;;;;;;;;;2199670;59;2306;-23
2024/01/21 12:10:19;;;;;;;;;;;;;;;;;;2198130;67;1761;-22
2024/01/21 12:12:49;;;;;;;;;;;;;;;;;;2199511;67;1551;-23
2024/01/21 12:15:20;;;;;;;;;;;;;;;;;;2198513;59;2590;-23
2024/01/21 12:17:56;;;;;;;;;;;;;;;;;;2198778;67;1761;-23
2024/01/21 12:20:26;;;;;;;;;;;;;;;;;;2199104;67;1688;-23
2024/01/21 12:22:57;;;;;;;;;;;;;;;;;;2199347;67;1719;-23
2024/01/21 12:25:27;;;;;;;;;;;;;;;;;;2198806;67;1593;-23
2024/01/21 12:27:58;;;;;;;;;;;;;;;;;;2198275;59;1965;-23
2024/01/21 12:30:28;;;;;;;;;;;;;;;;;;2198596;59;1778;-23
2024/01/21 12:32:58;;;;;;;;;;;;;;;;;;2196075;67;1484;-23
2024/01/21 12:35:28;;;;;;;;;;;;;;;;;;2198368;67;1995;-23
2024/01/21 12:37:59;;;;;;;;;;;;;;;;;;2196761;59;1949;-23
2024/01/21 12:40:30;;;;;;;;;;;;;;;;;;2198789;67;1771;-23
2024/01/21 12:43:00;;;;;;;;;;;;;;;;;;2199515;67;1747;-23
2024/01/21 12:45:30;;;;;;;;;;;;;;;;;;2196384;67;1449;-23
2024/01/21 12:48:00;;;;;;;;;;;;;;;;;;2200137;59;1823;-23
2024/01/21 12:50:30;;;;;;;;;;;;;;;;;;2199746;59;1641;-22
2024/01/21 12:53:01;;;;;;;;;;;;;;;;;;2200538;59;1634;-23
2024/01/21 12:55:31;;;;;;;;;;;;;;;;;;2199135;59;1940;-23
2024/01/21 12:58:02;;;;;;;;;;;;;;;;;;2199804;59;2324;-23
2024/01/21 13:00:33;;;;;;;;;;;;;;;;;;2198571;59;1823;-22
2024/01/21 13:03:03;;;;;;;;;;;;;;;;;;2194084;59;2356;-22
2024/01/21 13:05:33;;;;;;;;;;;;;;;;;;2198685;59;1465;-22
2024/01/21 13:08:06;;;;;;;;;;;;;;;;;;2196864;59;1936;-22
2024/01/21 13:10:37;;;;;;;;;;;;;;;;;;2199329;67;1638;-22
2024/01/21 13:13:07;;;;;;;;;;;;;;;;;;2198926;67;1712;-22
2024/01/21 13:15:38;;;;;;;;;;;;;;;;;;2200522;59;2442;-22
2024/01/21 13:18:08;;;;;;;;;;;;;;;;;;2198202;59;3303;-22
2024/01/21 13:20:40;;;;;;;;;;;;;;;;;;2197240;59;3520;-22
2024/01/21 13:23:10;;;;;;;;;;;;;;;;;;2194808;67;1859;-22
2024/01/21 13:25:41;;;;;;;;;;;;;;;;;;2199342;59;2423;-23
2024/01/21 13:28:27;;;;;;;;;;;;;;;;;;2196146;59;2368;-23
2024/01/21 13:30:58;;;;;;;;;;;;;;;;;;2195523;67;1740;-22
2024/01/21 13:33:28;;;;;;;;;;;;;;;;;;2199313;59;1720;-22
2024/01/21 13:35:59;;;;;;;;;;;;;;;;;;2199161;67;2000;-22
2024/01/21 13:38:30;;;;;;;;;;;;;;;;;;2199691;67;1463;-22
2024/01/21 13:41:00;;;;;;;;;;;;;;;;;;2196061;67;1395;-22
2024/01/21 13:43:31;;;;;;;;;;;;;;;;;;2198746;59;1614;-22
2024/01/21 13:46:01;;;;;;;;;;;;;;;;;;2196173;67;1723;-22
2024/01/21 13:48:31;;;;;;;;;;;;;;;;;;2198933;59;1684;-22
2024/01/21 13:51:02;;;;;;;;;;;;;;;;;;2200075;60;1852;-22
2024/01/21 13:53:32;;;;;;;;;;;;;;;;;;2198655;59;2038;-22
2024/01/21 13:56:03;;;;;;;;;;;;;;;;;;2197213;59;1933;-22
2024/01/21 13:58:33;;;;;;;;;;;;;;;;;;2199743;67;1246;-22
2024/01/21 14:01:04;;;;;;;;;;;;;;;;;;2199657;59;1521;-22
2024/01/21 14:03:34;;;;;;;;;;;;;;;;;;2196494;59;1677;-22
2024/01/21 14:06:04;;;;;;;;;;;;;;;;;;2199547;59;1531;-22
2024/01/21 14:08:34;;;;;;;;;;;;;;;;;;2199552;59;1476;-23
2024/01/21 14:11:05;;;;;;;;;;;;;;;;;;2199559;59;2464;-23
2024/01/21 14:13:36;;;;;;;;;;;;;;;;;;2197131;67;2268;-22
2024/01/21 14:16:06;;;;;;;;;;;;;;;;;;2199708;59;2335;-22
2024/01/21 14:18:37;;;;;;;;;;;;;;;;;;2196519;67;1524;-22
2024/01/21 14:21:07;;;;;;;;;;;;;;;;;;2200078;67;1322;-22
2024/01/21 14:23:37;;;;;;;;;;;;;;;;;;2199664;67;1627;-22
2024/01/21 14:26:09;;;;;;;;;;;;;;;;;;2200002;59;1988;-23
2024/01/21 14:28:41;;;;;;;;;;;;;;;;;;2198895;59;1925;-22
2024/01/21 14:31:12;;;;;;;;;;;;;;;;;;2198800;67;1152;-22
2024/01/21 14:33:42;;;;;;;;;;;;;;;;;;2200202;59;2197;-22
2024/01/21 14:36:12;;;;;;;;;;;;;;;;;;2198786;67;1993;-22
2024/01/21 14:38:42;;;;;;;;;;;;;;;;;;2200500;67;2388;-22
2024/01/21 14:41:13;;;;;;;;;;;;;;;;;;2199680;67;1105;-23
2024/01/21 14:43:43;;;;;;;;;;;;;;;;;;2200435;59;2412;-22
2024/01/21 14:46:14;;;;;;;;;;;;;;;;;;2196817;67;1300;-22
2024/01/21 14:48:44;;;;;;;;;;;;;;;;;;2199446;59;2405;-22
2024/01/21 14:51:14;;;;;;;;;;;;;;;;;;2199567;59;1233;-22
2024/01/21 14:53:46;;;;;;;;;;;;;;;;;;2199585;59;2097;-22
2024/01/21 14:56:16;;;;;;;;;;;;;;;;;;2196364;59;1952;-22
2024/01/21 14:58:48;;;;;;;;;;;;;;;;;;2196815;59;2112;-22
2024/01/21 15:01:18;;;;;;;;;;;;;;;;;;2197219;59;1537;-22
2024/01/21 15:03:49;;;;;;;;;;;;;;;;;;2197957;67;1480;-22
2024/01/21 15:06:20;;;;;;;;;;;;;;;;;;2198777;59;1340;-22
2024/01/21 15:08:50;;;;;;;;;;;;;;;;;;2200360;59;1586;-22
2024/01/21 15:11:20;;;;;;;;;;;;;;;;;;2199309;67;1154;-22
2024/01/21 15:13:51;;;;;;;;;;;;;;;;;;2196411;67;1346;-22
2024/01/21 15:16:22;;;;;;;;;;;;;;;;;;2196860;59;2501;-22
2024/01/21 15:18:52;;;;;;;;;;;;;;;;;;2196648;67;1668;-22
2024/01/21 15:21:22;;;;;;;;;;;;;;;;;;2199206;67;1099;-22
2024/01/21 15:23:52;;;;;;;;;;;;;;;;;;2200605;67;1213;-22
2024/01/21 15:26:24;;;;;;;;;;;;;;;;;;2197448;67;1579;-22
2024/01/21 15:29:00;;;;;;;;;;;;;;;;;;2213348;58;1702;-17
2024/01/21 15:31:31;;;;;;;;;;;;;;;;;;2209508;66;2073;-17
2024/01/21 15:34:02;;;;;;;;;;;;;;;;;;2213087;66;1677;-17
2024/01/21 15:36:32;;;;;;;;;;;;;;;;;;2209782;66;2433;-17
2024/01/21 15:39:03;;;;;;;;;;;;;;;;;;2213673;66;2031;-17
2024/01/21 15:41:34;;;;;;;;;;;;;;;;;;2212823;66;1972;-18
2024/01/21 15:44:04;;;;;;;;;;;;;;;;;;2212828;59;2252;-17
2024/01/21 15:46:34;;;;;;;;;;;;;;;;;;2206644;66;2023;-17
2024/01/21 15:49:05;;;;;;;;;;;;;;;;;;2209093;66;2328;-16
2024/01/21 15:51:35;;;;;;;;;;;;;;;;;;2212273;58;1930;-16
2024/01/21 15:54:12;;;;;;;;;;;;;;;;;;2210327;59;2344;-17
2024/01/21 15:56:43;;;;;;;;;;;;;;;;;;2212456;58;2362;-17
2024/01/21 15:59:13;;;;;;;;;;;;;;;;;;2210326;66;1766;-17
2024/01/21 16:01:43;;;;;;;;;;;;;;;;;;2209043;58;2920;-17
2024/01/21 16:04:14;;;;;;;;;;;;;;;;;;2213393;66;2074;-16
2024/01/21 16:06:44;;;;;;;;;;;;;;;;;;2212527;59;2214;-18
2024/01/21 16:09:14;;;;;;;;;;;;;;;;;;2212107;58;2520;-16
2024/01/21 16:11:44;;;;;;;;;;;;;;;;;;2206294;59;2533;-17
2024/01/21 16:14:15;;;;;;;;;;;;;;;;;;2213095;59;3066;-16
2024/01/21 16:16:47;;;;;;;;;;;;;;;;;;2208980;59;2449;-16
2024/01/21 16:19:19;;;;;;;;;;;;;;;;;;2208538;66;2034;-16
2024/01/21 16:21:52;;;;;;;;;;;;;;;;;;2213175;66;2340;-17
2024/01/21 16:24:22;;;;;;;;;;;;;;;;;;2212822;59;2516;-17
2024/01/21 16:26:53;;;;;;;;;;;;;;;;;;2213097;59;2374;-18
2024/01/21 16:29:24;;;;;;;;;;;;;;;;;;2213112;58;2527;-17
2024/01/21 16:31:54;;;;;;;;;;;;;;;;;;2214146;58;1988;-17
2024/01/21 16:34:25;;;;;;;;;;;;;;;;;;2212828;66;2154;-16
2024/01/21 16:36:55;;;;;;;;;;;;;;;;;;2210367;66;2450;-17
2024/01/21 16:39:25;;;;;;;;;;;;;;;;;;2208463;66;2869;-16
2024/01/21 16:41:55;;;;;;;;;;;;;;;;;;2208112;59;1910;-17
2024/01/21 16:44:26;;;;;;;;;;;;;;;;;;2207450;66;1976;-17
2024/01/21 16:46:58;;;;;;;;;;;;;;;;;;2210879;66;2319;-16
2024/01/21 16:49:28;;;;;;;;;;;;;;;;;;2206524;59;2383;-16
2024/01/21 16:51:59;;;;;;;;;;;;;;;;;;2207155;59;2454;-16
2024/01/21 16:54:29;;;;;;;;;;;;;;;;;;2210244;59;1975;-16
2024/01/21 16:56:59;;;;;;;;;;;;;;;;;;2210517;59;2111;-16
2024/01/21 16:59:32;;;;;;;;;;;;;;;;;;2207108;66;2390;-16
2024/01/21 17:02:06;;;;;;;;;;;;;;;;;;2207341;59;1901;-16
2024/01/21 17:04:36;;;;;;;;;;;;;;;;;;2210578;59;2452;-16
2024/01/21 17:07:06;;;;;;;;;;;;;;;;;;2206827;59;2746;-16
2024/01/21 17:09:36;;;;;;;;;;;;;;;;;;2206027;59;2608;-17
2024/01/21 17:12:16;;;;;;;;;;;;;;;;;;2206809;66;1793;-17
2024/01/21 17:14:47;;;;;;;;;;;;;;;;;;2210333;66;1846;-17
2024/01/21 17:17:18;;;;;;;;;;;;;;;;;;2210612;59;2186;-16
2024/01/21 17:19:49;;;;;;;;;;;;;;;;;;2205770;66;2922;-16
2024/01/21 17:22:19;;;;;;;;;;;;;;;;;;2206995;66;2077;-16
2024/01/21 17:24:49;;;;;;;;;;;;;;;;;;2210387;66;2105;-16
2024/01/21 17:27:19;;;;;;;;;;;;;;;;;;2206420;59;2549;-17